ARG1616 SABE-SAZB
Flight info
| Callsign | ARG1616 |
|---|---|
| Flight time | 0h 58m |
| Altitude | 38000 |
| Route | PTA8 GBE UT694 XODIK UW18 MOXAN MOXAN2U |
| Aircraft | B738/M-SDFGHILORVW/S |
Departure
| Time | 2026-05-07 00:12 |
|---|---|
| Airport | Aeroparque Jorge Newbery (SABE) |
Arrival
| Time | 2026-05-07 01:10 |
|---|---|
| Airport | Comandante Espora Airport (SAZB) |
| Time | Latitude | Longitude | Altitude | Speed | Heading |
|---|---|---|---|---|---|
| 2026-05-06 23:23 | -34.55760 | -58.41316 | 27 ft | 0 kts | 34° |
| 2026-05-06 23:51 | -34.55763 | -58.41318 | 27 ft | 2 kts | 34° |
| 2026-05-06 23:51 | -34.55774 | -58.41327 | 27 ft | 0 kts | 34° |
| 2026-05-06 23:52 | -34.55783 | -58.41334 | 27 ft | 2 kts | 14° |
| 2026-05-06 23:52 | -34.55799 | -58.41334 | 27 ft | 2 kts | 345° |
| 2026-05-06 23:52 | -34.55812 | -58.41326 | 27 ft | 2 kts | 317° |
| 2026-05-06 23:52 | -34.55817 | -58.41319 | 27 ft | 1 kts | 301° |
| 2026-05-06 23:53 | -34.55820 | -58.41314 | 27 ft | 0 kts | 303° |
| 2026-05-06 23:56 | -34.55821 | -58.41312 | 27 ft | 1 kts | 303° |
| 2026-05-06 23:56 | -34.55822 | -58.41310 | 27 ft | 0 kts | 303° |
| 2026-05-06 23:57 | -34.55822 | -58.41311 | 27 ft | 0 kts | 303° |
| 2026-05-06 23:57 | -34.55818 | -58.41317 | 27 ft | 0 kts | 305° |
| 2026-05-06 23:57 | -34.55817 | -58.41319 | 27 ft | 0 kts | 305° |
| 2026-05-06 23:59 | -34.55814 | -58.41324 | 27 ft | 2 kts | 305° |
| 2026-05-07 00:00 | -34.55790 | -58.41367 | 27 ft | 9 kts | 304° |
| 2026-05-07 00:00 | -34.55750 | -58.41448 | 27 ft | 11 kts | 300° |
| 2026-05-07 00:00 | -34.55723 | -58.41525 | 27 ft | 8 kts | 264° |
| 2026-05-07 00:00 | -34.55744 | -58.41565 | 27 ft | 8 kts | 223° |
| 2026-05-07 00:01 | -34.55807 | -58.41568 | 27 ft | 8 kts | 126° |
| 2026-05-07 00:01 | -34.55837 | -58.41499 | 27 ft | 11 kts | 117° |
| 2026-05-07 00:01 | -34.55878 | -58.41400 | 27 ft | 14 kts | 117° |
| 2026-05-07 00:01 | -34.55929 | -58.41291 | 27 ft | 14 kts | 123° |
| 2026-05-07 00:02 | -34.55985 | -58.41194 | 27 ft | 14 kts | 127° |
| 2026-05-07 00:02 | -34.56054 | -58.41082 | 27 ft | 17 kts | 128° |
| 2026-05-07 00:02 | -34.56132 | -58.40955 | 27 ft | 18 kts | 125° |
| 2026-05-07 00:02 | -34.56168 | -58.40845 | 27 ft | 12 kts | 101° |
| 2026-05-07 00:03 | -34.56206 | -58.40759 | 27 ft | 10 kts | 123° |
| 2026-05-07 00:03 | -34.56245 | -58.40690 | 27 ft | 9 kts | 124° |
| 2026-05-07 00:03 | -34.56278 | -58.40631 | 27 ft | 7 kts | 124° |
| 2026-05-07 00:03 | -34.56315 | -58.40572 | 27 ft | 9 kts | 134° |
| 2026-05-07 00:04 | -34.56364 | -58.40518 | 27 ft | 8 kts | 139° |
| 2026-05-07 00:04 | -34.56388 | -58.40492 | 27 ft | 1 kts | 139° |
| 2026-05-07 00:04 | -34.56397 | -58.40483 | 27 ft | 2 kts | 138° |
| 2026-05-07 00:04 | -34.56399 | -58.40480 | 27 ft | 0 kts | 139° |
| 2026-05-07 00:08 | -34.56400 | -58.40479 | 27 ft | 0 kts | 139° |
| 2026-05-07 00:08 | -34.56412 | -58.40466 | 27 ft | 3 kts | 139° |
| 2026-05-07 00:09 | -34.56433 | -58.40443 | 27 ft | 5 kts | 139° |
| 2026-05-07 00:09 | -34.56472 | -58.40402 | 27 ft | 8 kts | 139° |
| 2026-05-07 00:09 | -34.56533 | -58.40393 | 27 ft | 9 kts | 222° |
| 2026-05-07 00:09 | -34.56544 | -58.40456 | 27 ft | 4 kts | 291° |
| 2026-05-07 00:10 | -34.56536 | -58.40474 | 27 ft | 0 kts | 303° |
| 2026-05-07 00:11 | -34.56487 | -58.40562 | 27 ft | 44 kts | 304° |
| 2026-05-07 00:11 | -34.56166 | -58.41138 | 28 ft | 116 kts | 304° |
| 2026-05-07 00:11 | -34.55601 | -58.42148 | 171 ft | 159 kts | 305° |
| 2026-05-07 00:12 | -34.54979 | -58.43278 | 761 ft | 168 kts | 306° |
| 2026-05-07 00:12 | -34.54176 | -58.44267 | 1420 ft | 168 kts | 333° |
| 2026-05-07 00:12 | -34.53002 | -58.44532 | 1739 ft | 186 kts | 8° |
| 2026-05-07 00:12 | -34.51720 | -58.43864 | 1946 ft | 218 kts | 36° |
| 2026-05-07 00:13 | -34.50620 | -58.42461 | 2425 ft | 240 kts | 57° |
| 2026-05-07 00:13 | -34.50010 | -58.40530 | 3003 ft | 259 kts | 82° |
| 2026-05-07 00:13 | -34.50204 | -58.38339 | 3670 ft | 271 kts | 108° |
| 2026-05-07 00:13 | -34.50793 | -58.36143 | 4452 ft | 277 kts | 107° |
| 2026-05-07 00:14 | -34.51352 | -58.33828 | 4645 ft | 282 kts | 105° |
| 2026-05-07 00:14 | -34.51900 | -58.31556 | 4667 ft | 281 kts | 106° |
| 2026-05-07 00:14 | -34.52549 | -58.29223 | 5196 ft | 295 kts | 117° |
| 2026-05-07 00:14 | -34.53827 | -58.27381 | 6281 ft | 288 kts | 146° |
| 2026-05-07 00:15 | -34.55681 | -58.26584 | 7174 ft | 286 kts | 178° |
| 2026-05-07 00:15 | -34.57648 | -58.26743 | 8100 ft | 285 kts | 187° |
| 2026-05-07 00:15 | -34.59641 | -58.27002 | 8902 ft | 290 kts | 187° |
| 2026-05-07 00:15 | -34.61643 | -58.27274 | 9751 ft | 293 kts | 188° |
| 2026-05-07 00:16 | -34.63716 | -58.27597 | 10195 ft | 312 kts | 188° |
| 2026-05-07 00:16 | -34.65968 | -58.27965 | 10641 ft | 329 kts | 188° |
| 2026-05-07 00:16 | -34.68253 | -58.28341 | 11408 ft | 335 kts | 188° |
| 2026-05-07 00:16 | -34.70587 | -58.28729 | 12182 ft | 341 kts | 188° |
| 2026-05-07 00:17 | -34.72936 | -58.29121 | 13000 ft | 344 kts | 189° |
| 2026-05-07 00:17 | -34.75307 | -58.29518 | 13797 ft | 348 kts | 189° |
| 2026-05-07 00:17 | -34.77714 | -58.29922 | 14594 ft | 352 kts | 189° |
| 2026-05-07 00:17 | -34.80125 | -58.30327 | 15368 ft | 355 kts | 190° |
| 2026-05-07 00:18 | -34.82562 | -58.30736 | 16112 ft | 359 kts | 190° |
| 2026-05-07 00:18 | -34.85051 | -58.31155 | 16841 ft | 363 kts | 191° |
| 2026-05-07 00:18 | -34.87540 | -58.31574 | 17543 ft | 366 kts | 191° |
| 2026-05-07 00:18 | -34.90059 | -58.31999 | 18271 ft | 368 kts | 191° |
| 2026-05-07 00:19 | -34.92601 | -58.32427 | 18988 ft | 370 kts | 191° |
| 2026-05-07 00:19 | -34.95153 | -58.32858 | 19672 ft | 372 kts | 191° |
| 2026-05-07 00:19 | -34.97756 | -58.33298 | 20334 ft | 374 kts | 191° |
| 2026-05-07 00:19 | -35.00319 | -58.33731 | 20948 ft | 377 kts | 191° |
| 2026-05-07 00:20 | -35.02944 | -58.34175 | 21540 ft | 380 kts | 190° |
| 2026-05-07 00:20 | -35.05585 | -58.34622 | 22097 ft | 383 kts | 190° |
| 2026-05-07 00:20 | -35.08237 | -58.35071 | 22638 ft | 386 kts | 190° |
| 2026-05-07 00:20 | -35.10898 | -58.35637 | 23126 ft | 388 kts | 199° |
| 2026-05-07 00:21 | -35.13302 | -58.37037 | 23486 ft | 389 kts | 217° |
| 2026-05-07 00:21 | -35.15496 | -58.39067 | 24036 ft | 390 kts | 219° |
| 2026-05-07 00:21 | -35.17717 | -58.41044 | 24434 ft | 396 kts | 216° |
| 2026-05-07 00:21 | -35.20015 | -58.42942 | 24918 ft | 399 kts | 216° |
| 2026-05-07 00:22 | -35.22333 | -58.44834 | 25365 ft | 402 kts | 216° |
| 2026-05-07 00:22 | -35.24640 | -58.46714 | 25800 ft | 404 kts | 216° |
| 2026-05-07 00:22 | -35.27016 | -58.48637 | 26226 ft | 407 kts | 216° |
| 2026-05-07 00:22 | -35.29414 | -58.50566 | 26637 ft | 410 kts | 216° |
| 2026-05-07 00:23 | -35.31784 | -58.52467 | 27033 ft | 412 kts | 216° |
| 2026-05-07 00:23 | -35.34190 | -58.54394 | 27415 ft | 415 kts | 216° |
| 2026-05-07 00:23 | -35.36627 | -58.56343 | 27790 ft | 417 kts | 216° |
| 2026-05-07 00:23 | -35.39033 | -58.58267 | 28143 ft | 420 kts | 216° |
| 2026-05-07 00:24 | -35.41522 | -58.60257 | 28505 ft | 422 kts | 216° |
| 2026-05-07 00:24 | -35.43967 | -58.62212 | 28843 ft | 424 kts | 216° |
| 2026-05-07 00:24 | -35.46444 | -58.64193 | 29164 ft | 427 kts | 216° |
| 2026-05-07 00:24 | -35.48933 | -58.66185 | 29496 ft | 429 kts | 217° |
| 2026-05-07 00:25 | -35.51456 | -58.68205 | 29821 ft | 431 kts | 217° |
| 2026-05-07 00:25 | -35.53993 | -58.70237 | 30129 ft | 433 kts | 217° |
| 2026-05-07 00:25 | -35.56510 | -58.72254 | 30427 ft | 436 kts | 217° |
| 2026-05-07 00:25 | -35.59063 | -58.74301 | 30715 ft | 438 kts | 217° |
| 2026-05-07 00:26 | -35.61650 | -58.76378 | 31153 ft | 436 kts | 217° |
| 2026-05-07 00:26 | -35.64152 | -58.78385 | 31590 ft | 434 kts | 217° |
| 2026-05-07 00:26 | -35.66692 | -58.80426 | 31973 ft | 434 kts | 217° |
| 2026-05-07 00:26 | -35.69200 | -58.82443 | 32336 ft | 433 kts | 217° |
| 2026-05-07 00:27 | -35.71743 | -58.84490 | 32688 ft | 433 kts | 217° |
| 2026-05-07 00:27 | -35.74260 | -58.86518 | 33039 ft | 433 kts | 218° |
| 2026-05-07 00:27 | -35.76779 | -58.88549 | 33367 ft | 433 kts | 218° |
| 2026-05-07 00:27 | -35.79328 | -58.90606 | 33703 ft | 433 kts | 218° |
| 2026-05-07 00:28 | -35.84347 | -58.94659 | 34350 ft | 433 kts | 218° |
| 2026-05-07 00:28 | -35.86892 | -58.96716 | 34687 ft | 432 kts | 218° |
| 2026-05-07 00:28 | -35.89385 | -58.98734 | 34987 ft | 432 kts | 218° |
| 2026-05-07 00:29 | -35.91916 | -59.00783 | 35303 ft | 432 kts | 218° |
| 2026-05-07 00:29 | -35.92827 | -59.01521 | 35413 ft | 432 kts | 218° |
| 2026-05-07 00:30 | -35.97389 | -59.05223 | 35741 ft | 436 kts | 218° |
| 2026-05-07 00:30 | -35.99931 | -59.07285 | 36215 ft | 431 kts | 218° |
| 2026-05-07 00:30 | -36.02462 | -59.09340 | 36489 ft | 431 kts | 218° |
| 2026-05-07 00:30 | -36.04968 | -59.11378 | 36738 ft | 431 kts | 218° |
| 2026-05-07 00:31 | -36.07491 | -59.13432 | 37015 ft | 431 kts | 218° |
| 2026-05-07 00:31 | -36.09980 | -59.15459 | 37266 ft | 431 kts | 218° |
| 2026-05-07 00:31 | -36.12348 | -59.17388 | 37493 ft | 431 kts | 218° |
| 2026-05-07 00:31 | -36.14875 | -59.19450 | 37635 ft | 433 kts | 218° |
| 2026-05-07 00:32 | -36.19917 | -59.23568 | 37642 ft | 434 kts | 218° |
| 2026-05-07 00:32 | -36.24949 | -59.27680 | 37641 ft | 430 kts | 218° |
| 2026-05-07 00:33 | -36.29946 | -59.31775 | 37642 ft | 430 kts | 218° |
| 2026-05-07 00:33 | -36.34945 | -59.35876 | 37642 ft | 431 kts | 218° |
| 2026-05-07 00:34 | -36.39989 | -59.40021 | 37642 ft | 431 kts | 218° |
| 2026-05-07 00:34 | -36.45009 | -59.44152 | 37641 ft | 431 kts | 218° |
| 2026-05-07 00:35 | -36.49978 | -59.48248 | 37642 ft | 431 kts | 218° |
| 2026-05-07 00:35 | -36.55011 | -59.52403 | 37641 ft | 431 kts | 218° |
| 2026-05-07 00:36 | -36.60014 | -59.56540 | 37642 ft | 431 kts | 218° |
| 2026-05-07 00:36 | -36.65025 | -59.60690 | 37641 ft | 431 kts | 218° |
| 2026-05-07 00:37 | -36.70015 | -59.64829 | 37642 ft | 431 kts | 218° |
| 2026-05-07 00:37 | -36.74999 | -59.68970 | 37641 ft | 431 kts | 218° |
| 2026-05-07 00:38 | -36.80016 | -59.73145 | 37642 ft | 431 kts | 218° |
| 2026-05-07 00:38 | -36.84770 | -59.77606 | 37643 ft | 423 kts | 231° |
| 2026-05-07 00:39 | -36.88577 | -59.83201 | 37642 ft | 422 kts | 233° |
| 2026-05-07 00:39 | -36.92542 | -59.88646 | 37642 ft | 423 kts | 231° |
| 2026-05-07 00:40 | -36.96552 | -59.94109 | 37642 ft | 423 kts | 231° |
| 2026-05-07 00:40 | -37.00542 | -59.99511 | 37641 ft | 423 kts | 231° |
| 2026-05-07 00:41 | -37.04531 | -60.04895 | 37641 ft | 423 kts | 231° |
| 2026-05-07 00:41 | -37.08544 | -60.10310 | 37641 ft | 423 kts | 230° |
| 2026-05-07 00:42 | -37.12574 | -60.15750 | 37642 ft | 423 kts | 230° |
| 2026-05-07 00:42 | -37.16565 | -60.21143 | 37642 ft | 424 kts | 230° |
| 2026-05-07 00:43 | -37.20587 | -60.26590 | 37641 ft | 423 kts | 230° |
| 2026-05-07 00:43 | -37.24572 | -60.31990 | 37642 ft | 422 kts | 230° |
| 2026-05-07 00:44 | -37.28544 | -60.37379 | 37073 ft | 416 kts | 230° |
| 2026-05-07 00:44 | -37.30529 | -60.40076 | 36462 ft | 413 kts | 230° |
| 2026-05-07 00:44 | -37.32484 | -60.42735 | 35835 ft | 411 kts | 230° |
| 2026-05-07 00:45 | -37.34405 | -60.45351 | 35188 ft | 415 kts | 230° |
| 2026-05-07 00:45 | -37.36400 | -60.48074 | 34481 ft | 420 kts | 230° |
| 2026-05-07 00:45 | -37.38381 | -60.50776 | 33781 ft | 421 kts | 230° |
| 2026-05-07 00:45 | -37.40358 | -60.53471 | 33281 ft | 414 kts | 230° |
| 2026-05-07 00:46 | -37.42294 | -60.56111 | 32756 ft | 408 kts | 230° |
| 2026-05-07 00:46 | -37.44192 | -60.58705 | 32241 ft | 402 kts | 230° |
| 2026-05-07 00:46 | -37.46078 | -60.61284 | 31724 ft | 397 kts | 230° |
| 2026-05-07 00:46 | -37.47921 | -60.63808 | 31225 ft | 396 kts | 230° |
| 2026-05-07 00:47 | -37.49773 | -60.66349 | 30711 ft | 398 kts | 230° |
| 2026-05-07 00:47 | -37.51633 | -60.68900 | 30192 ft | 393 kts | 230° |
| 2026-05-07 00:47 | -37.53479 | -60.71430 | 29677 ft | 388 kts | 230° |
| 2026-05-07 00:47 | -37.55281 | -60.73904 | 29175 ft | 383 kts | 230° |
| 2026-05-07 00:48 | -37.57064 | -60.76355 | 28681 ft | 377 kts | 230° |
| 2026-05-07 00:48 | -37.58820 | -60.78769 | 28197 ft | 375 kts | 230° |
| 2026-05-07 00:48 | -37.60591 | -60.81210 | 27711 ft | 379 kts | 230° |
| 2026-05-07 00:48 | -37.62357 | -60.83642 | 27215 ft | 374 kts | 230° |
| 2026-05-07 00:49 | -37.64107 | -60.86053 | 26729 ft | 369 kts | 230° |
| 2026-05-07 00:49 | -37.65831 | -60.88432 | 26247 ft | 364 kts | 230° |
| 2026-05-07 00:49 | -37.67525 | -60.90770 | 25773 ft | 359 kts | 230° |
| 2026-05-07 00:49 | -37.69206 | -60.93094 | 25305 ft | 362 kts | 230° |
| 2026-05-07 00:50 | -37.70916 | -60.95459 | 24820 ft | 360 kts | 230° |
| 2026-05-07 00:50 | -37.72621 | -60.97817 | 24335 ft | 355 kts | 230° |
| 2026-05-07 00:50 | -37.74269 | -61.00098 | 23863 ft | 350 kts | 230° |
| 2026-05-07 00:50 | -37.75924 | -61.02393 | 23391 ft | 352 kts | 230° |
| 2026-05-07 00:51 | -37.77589 | -61.04704 | 22867 ft | 355 kts | 229° |
| 2026-05-07 00:51 | -37.79239 | -61.06992 | 22370 ft | 350 kts | 229° |
| 2026-05-07 00:51 | -37.80868 | -61.09253 | 21895 ft | 346 kts | 229° |
| 2026-05-07 00:51 | -37.82476 | -61.11487 | 21427 ft | 342 kts | 229° |
| 2026-05-07 00:52 | -37.84103 | -61.13751 | 20960 ft | 346 kts | 229° |
| 2026-05-07 00:52 | -37.85714 | -61.15993 | 20484 ft | 345 kts | 229° |
| 2026-05-07 00:52 | -37.87318 | -61.18226 | 20014 ft | 340 kts | 229° |
| 2026-05-07 00:52 | -37.88908 | -61.20442 | 19549 ft | 336 kts | 229° |
| 2026-05-07 00:53 | -37.90482 | -61.22636 | 19088 ft | 334 kts | 229° |
| 2026-05-07 00:53 | -37.92062 | -61.24842 | 18625 ft | 338 kts | 229° |
| 2026-05-07 00:53 | -37.93650 | -61.27058 | 18154 ft | 334 kts | 229° |
| 2026-05-07 00:53 | -37.95206 | -61.29231 | 17695 ft | 330 kts | 229° |
| 2026-05-07 00:54 | -37.96742 | -61.31379 | 17241 ft | 326 kts | 229° |
| 2026-05-07 00:54 | -37.98252 | -61.33491 | 16795 ft | 322 kts | 229° |
| 2026-05-07 00:54 | -37.99781 | -61.35633 | 16345 ft | 327 kts | 229° |
| 2026-05-07 00:54 | -38.01292 | -61.37750 | 15890 ft | 324 kts | 229° |
| 2026-05-07 00:55 | -38.02802 | -61.39866 | 15439 ft | 320 kts | 229° |
| 2026-05-07 00:55 | -38.04272 | -61.41930 | 15000 ft | 317 kts | 229° |
| 2026-05-07 00:55 | -38.05752 | -61.44006 | 14559 ft | 313 kts | 229° |
| 2026-05-07 00:55 | -38.07196 | -61.46034 | 14129 ft | 314 kts | 228° |
| 2026-05-07 00:56 | -38.08675 | -61.48115 | 13682 ft | 315 kts | 228° |
| 2026-05-07 00:56 | -38.10142 | -61.50177 | 13277 ft | 310 kts | 228° |
| 2026-05-07 00:56 | -38.11575 | -61.52193 | 13036 ft | 311 kts | 228° |
| 2026-05-07 00:56 | -38.13038 | -61.54254 | 12779 ft | 308 kts | 228° |
| 2026-05-07 00:57 | -38.14449 | -61.56242 | 12429 ft | 303 kts | 228° |
| 2026-05-07 00:57 | -38.15888 | -61.58271 | 12010 ft | 308 kts | 228° |
| 2026-05-07 00:57 | -38.17312 | -61.60281 | 11578 ft | 305 kts | 228° |
| 2026-05-07 00:57 | -38.18725 | -61.62275 | 11150 ft | 301 kts | 229° |
| 2026-05-07 00:58 | -38.20118 | -61.64243 | 10727 ft | 298 kts | 229° |
| 2026-05-07 00:58 | -38.21498 | -61.66193 | 10307 ft | 295 kts | 229° |
| 2026-05-07 00:58 | -38.22894 | -61.68170 | 9883 ft | 300 kts | 230° |
| 2026-05-07 00:58 | -38.24304 | -61.70165 | 9446 ft | 297 kts | 230° |
| 2026-05-07 00:59 | -38.27045 | -61.74048 | 8603 ft | 291 kts | 230° |
| 2026-05-07 00:59 | -38.28399 | -61.75968 | 8190 ft | 293 kts | 230° |
| 2026-05-07 00:59 | -38.29760 | -61.77901 | 7767 ft | 294 kts | 230° |
| 2026-05-07 01:00 | -38.31136 | -61.79853 | 7339 ft | 291 kts | 230° |
| 2026-05-07 01:00 | -38.32477 | -61.81759 | 6921 ft | 288 kts | 230° |
| 2026-05-07 01:00 | -38.33820 | -61.83667 | 6507 ft | 290 kts | 230° |
| 2026-05-07 01:00 | -38.35187 | -61.85613 | 6079 ft | 292 kts | 230° |
| 2026-05-07 01:01 | -38.36525 | -61.87517 | 5660 ft | 289 kts | 230° |
| 2026-05-07 01:01 | -38.37872 | -61.89435 | 5235 ft | 287 kts | 230° |
| 2026-05-07 01:01 | -38.39198 | -61.91324 | 4818 ft | 286 kts | 230° |
| 2026-05-07 01:01 | -38.40522 | -61.93212 | 4460 ft | 291 kts | 230° |
| 2026-05-07 01:02 | -38.41846 | -61.95100 | 4299 ft | 280 kts | 230° |
| 2026-05-07 01:02 | -38.43172 | -61.96994 | 4201 ft | 290 kts | 230° |
| 2026-05-07 01:02 | -38.44508 | -61.98901 | 4074 ft | 280 kts | 230° |
| 2026-05-07 01:02 | -38.45816 | -62.00771 | 3967 ft | 286 kts | 230° |
| 2026-05-07 01:03 | -38.47114 | -62.02626 | 3846 ft | 273 kts | 230° |
| 2026-05-07 01:03 | -38.48358 | -62.04404 | 3684 ft | 263 kts | 230° |
| 2026-05-07 01:03 | -38.49554 | -62.06116 | 3627 ft | 249 kts | 230° |
| 2026-05-07 01:03 | -38.50684 | -62.07734 | 3640 ft | 249 kts | 230° |
| 2026-05-07 01:04 | -38.51829 | -62.09376 | 3625 ft | 241 kts | 230° |
| 2026-05-07 01:04 | -38.52941 | -62.10989 | 3534 ft | 237 kts | 233° |
| 2026-05-07 01:04 | -38.53654 | -62.12809 | 3324 ft | 226 kts | 258° |
| 2026-05-07 01:04 | -38.54056 | -62.14719 | 3056 ft | 218 kts | 257° |
| 2026-05-07 01:05 | -38.54465 | -62.16504 | 2968 ft | 202 kts | 257° |
| 2026-05-07 01:05 | -38.54858 | -62.18226 | 2930 ft | 194 kts | 257° |
| 2026-05-07 01:05 | -38.55263 | -62.19789 | 2834 ft | 183 kts | 244° |
| 2026-05-07 01:05 | -38.56177 | -62.20903 | 2759 ft | 187 kts | 199° |
| 2026-05-07 01:06 | -38.57443 | -62.20996 | 2632 ft | 180 kts | 160° |
| 2026-05-07 01:06 | -38.58645 | -62.20533 | 2491 ft | 180 kts | 161° |
| 2026-05-07 01:06 | -38.59862 | -62.20123 | 2313 ft | 177 kts | 159° |
| 2026-05-07 01:06 | -38.61043 | -62.19690 | 2180 ft | 176 kts | 159° |
| 2026-05-07 01:07 | -38.61218 | -62.19625 | 2162 ft | 176 kts | 158° |
| 2026-05-07 01:07 | -38.61968 | -62.19346 | 2052 ft | 177 kts | 158° |
| 2026-05-07 01:07 | -38.62878 | -62.19009 | 1892 ft | 176 kts | 158° |
| 2026-05-07 01:07 | -38.64035 | -62.18578 | 1688 ft | 171 kts | 158° |
| 2026-05-07 01:08 | -38.65160 | -62.18155 | 1558 ft | 158 kts | 162° |
| 2026-05-07 01:08 | -38.66109 | -62.17810 | 1326 ft | 140 kts | 161° |
| 2026-05-07 01:08 | -38.67047 | -62.17458 | 1135 ft | 139 kts | 160° |
| 2026-05-07 01:08 | -38.67945 | -62.17124 | 953 ft | 127 kts | 159° |
| 2026-05-07 01:09 | -38.68739 | -62.16827 | 827 ft | 124 kts | 159° |
| 2026-05-07 01:09 | -38.69566 | -62.16519 | 677 ft | 123 kts | 159° |
| 2026-05-07 01:09 | -38.70388 | -62.16213 | 529 ft | 122 kts | 158° |
| 2026-05-07 01:09 | -38.71205 | -62.15910 | 375 ft | 121 kts | 159° |
| 2026-05-07 01:10 | -38.71987 | -62.15629 | 258 ft | 109 kts | 160° |
| 2026-05-07 01:10 | -38.72535 | -62.15412 | 251 ft | 53 kts | 163° |
| 2026-05-07 01:10 | -38.72822 | -62.15311 | 246 ft | 23 kts | 173° |
| 2026-05-07 01:10 | -38.72910 | -62.15390 | 245 ft | 9 kts | 225° |
| 2026-05-07 01:11 | -38.72948 | -62.15435 | 245 ft | 5 kts | 224° |
| 2026-05-07 01:11 | -38.72974 | -62.15474 | 246 ft | 7 kts | 233° |
| 2026-05-07 01:11 | -38.72994 | -62.15554 | 246 ft | 12 kts | 268° |
| 2026-05-07 01:11 | -38.72994 | -62.15690 | 246 ft | 15 kts | 266° |
| 2026-05-07 01:12 | -38.72996 | -62.15787 | 248 ft | 8 kts | 274° |
| 2026-05-07 01:12 | -38.72958 | -62.15846 | 250 ft | 9 kts | 350° |
| 2026-05-07 01:12 | -38.72882 | -62.15839 | 251 ft | 11 kts | 6° |
| 2026-05-07 01:12 | -38.72794 | -62.15829 | 252 ft | 13 kts | 5° |
| 2026-05-07 01:13 | -38.72693 | -62.15818 | 252 ft | 14 kts | 5° |
| 2026-05-07 01:13 | -38.72599 | -62.15807 | 252 ft | 12 kts | 6° |
| 2026-05-07 01:13 | -38.72517 | -62.15798 | 252 ft | 11 kts | 5° |
| 2026-05-07 01:13 | -38.72441 | -62.15789 | 252 ft | 11 kts | 5° |
| 2026-05-07 01:14 | -38.72359 | -62.15797 | 252 ft | 13 kts | 345° |
| 2026-05-07 01:14 | -38.72263 | -62.15833 | 253 ft | 15 kts | 343° |
| 2026-05-07 01:14 | -38.72157 | -62.15874 | 255 ft | 16 kts | 343° |
| 2026-05-07 01:14 | -38.72037 | -62.15917 | 255 ft | 18 kts | 344° |
| 2026-05-07 01:15 | -38.71909 | -62.15966 | 255 ft | 20 kts | 343° |
| 2026-05-07 01:15 | -38.71771 | -62.16018 | 257 ft | 19 kts | 344° |
| 2026-05-07 01:15 | -38.71685 | -62.16047 | 258 ft | 10 kts | 344° |
| 2026-05-07 01:15 | -38.71654 | -62.16095 | 259 ft | 7 kts | 280° |
| 2026-05-07 01:16 | -38.71648 | -62.16164 | 259 ft | 8 kts | 276° |
| 2026-05-07 01:16 | -38.71642 | -62.16216 | 258 ft | 7 kts | 288° |
| 2026-05-07 01:16 | -38.71617 | -62.16256 | 257 ft | 5 kts | 301° |
| 2026-05-07 01:16 | -38.71612 | -62.16279 | 256 ft | 1 kts | 282° |
| 2026-05-07 01:17 | -38.71610 | -62.16296 | 256 ft | 1 kts | 276° |
| 2026-05-07 01:17 | -38.71610 | -62.16299 | 256 ft | 0 kts | 276° |